Time;durP1;ratioP1;P1;durP2;ratioP2;P2;SDS_P1;SDS_P2;PMS_P1;PMS_P2;Temp;Humidity;BMP_temperature;BMP_pressure;BME280_temperature;BME280_humidity;BME280_pressure;Samples;Min_cycle;Max_cycle;Signal;HPM_P1;HPM_P2
2021/09/17 00:01:02;;;;;;;6.57;4.88;;;22.40;99.90;;;;;;5097936;28;20455;-66
2021/09/17 00:03:28;;;;;;;6.30;5.10;;;22.40;99.90;;;;;;5072799;28;20373;-65
2021/09/17 00:05:53;;;;;;;7.20;5.28;;;22.40;99.90;;;;;;5091367;28;20067;-65
2021/09/17 00:08:19;;;;;;;8.25;4.90;;;22.40;99.90;;;;;;5091215;28;20039;-66
2021/09/17 00:10:46;;;;;;;6.05;5.00;;;22.40;99.90;;;;;;5091664;28;20494;-66
2021/09/17 00:13:11;;;;;;;7.30;4.97;;;22.40;99.90;;;;;;5091661;28;20028;-66
2021/09/17 00:15:37;;;;;;;6.82;4.95;;;22.40;99.90;;;;;;5091782;28;20422;-66
2021/09/17 00:18:03;;;;;;;7.47;4.72;;;22.40;99.90;;;;;;5091780;28;20035;-65
2021/09/17 00:20:28;;;;;;;6.78;5.35;;;22.40;99.90;;;;;;5091736;28;20027;-65
2021/09/17 00:22:54;;;;;;;7.15;5.50;;;22.40;99.90;;;;;;5079177;28;20040;-65
2021/09/17 00:25:19;;;;;;;8.32;5.57;;;22.40;99.90;;;;;;5096600;28;20027;-65
2021/09/17 00:27:45;;;;;;;6.85;5.20;;;22.40;99.90;;;;;;5111823;28;20085;-65
2021/09/17 00:30:11;;;;;;;6.18;5.18;;;22.40;99.90;;;;;;5112098;28;20487;-65
2021/09/17 00:32:37;;;;;;;6.45;5.45;;;22.40;99.90;;;;;;5111613;28;20106;-66
2021/09/17 00:35:04;;;;;;;7.18;5.20;;;22.40;99.90;;;;;;5111881;28;20051;-66
2021/09/17 00:37:29;;;;;;;7.90;5.38;;;22.40;99.90;;;;;;5077542;28;20389;-65
2021/09/17 00:39:55;;;;;;;7.20;5.28;;;22.40;99.90;;;;;;5070825;28;20042;-65
2021/09/17 00:42:21;;;;;;;6.45;5.32;;;22.40;99.90;;;;;;5071262;28;20381;-65
2021/09/17 00:44:47;;;;;;;7.55;5.50;;;22.30;99.90;;;;;;5071125;28;20485;-66
2021/09/17 00:47:12;;;;;;;7.38;5.13;;;22.30;99.90;;;;;;5071333;28;20040;-65
2021/09/17 00:49:38;;;;;;;7.40;5.30;;;22.30;99.90;;;;;;5071063;28;20464;-66
2021/09/17 00:52:04;;;;;;;7.18;5.60;;;22.30;99.90;;;;;;5082105;28;20488;-66
2021/09/17 00:54:34;;;;;;;6.82;4.95;;;22.30;99.90;;;;;;5083685;28;20039;-65
2021/09/17 00:57:00;;;;;;;7.22;5.88;;;22.30;99.90;;;;;;5112143;28;20066;-66
2021/09/17 00:59:26;;;;;;;6.57;5.30;;;22.30;99.90;;;;;;5111705;28;20039;-65
2021/09/17 01:01:51;;;;;;;8.20;6.15;;;22.30;99.90;;;;;;5098592;28;20032;-66
2021/09/17 01:04:17;;;;;;;7.90;5.97;;;22.30;99.90;;;;;;5088781;28;20027;-66
2021/09/17 01:06:43;;;;;;;7.85;5.40;;;22.30;99.90;;;;;;5080812;28;20028;-66
2021/09/17 01:09:09;;;;;;;7.75;5.40;;;22.30;99.90;;;;;;5082062;28;20117;-65
2021/09/17 01:11:36;;;;;;;7.75;5.47;;;22.30;99.90;;;;;;5079565;28;20129;-66
2021/09/17 01:14:02;;;;;;;6.50;5.20;;;22.30;99.90;;;;;;5091183;28;20113;-66
2021/09/17 01:16:28;;;;;;;7.85;5.72;;;22.30;99.90;;;;;;5091590;28;20107;-66
2021/09/17 01:18:55;;;;;;;8.65;6.03;;;22.30;99.90;;;;;;5088370;28;20028;-66
2021/09/17 01:21:22;;;;;;;6.47;5.38;;;22.30;99.90;;;;;;5088526;28;20123;-66
2021/09/17 01:23:48;;;;;;;7.32;5.55;;;22.30;99.90;;;;;;5078532;28;20103;-66
2021/09/17 01:26:14;;;;;;;8.13;6.05;;;22.30;99.90;;;;;;5093425;28;20144;-66
2021/09/17 01:28:40;;;;;;;8.00;5.60;;;22.30;99.90;;;;;;5111351;28;20020;-66
2021/09/17 01:31:07;;;;;;;10.77;5.75;;;22.30;99.90;;;;;;5111521;28;20026;-66
2021/09/17 01:33:33;;;;;;;7.25;5.80;;;22.20;99.90;;;;;;5111477;28;20015;-66
2021/09/17 01:36:06;;;;;;;7.30;5.72;;;22.30;99.90;;;;;;5099608;28;20025;-65
2021/09/17 01:38:33;;;;;;;7.78;6.18;;;22.30;99.90;;;;;;5071173;28;20021;-66
2021/09/17 01:40:59;;;;;;;7.82;6.00;;;22.30;99.90;;;;;;5071112;28;20147;-66
2021/09/17 01:43:26;;;;;;;9.00;6.45;;;22.30;99.90;;;;;;5081097;28;20523;-66
2021/09/17 01:45:52;;;;;;;7.53;5.70;;;22.20;99.90;;;;;;5092348;28;20021;-65
2021/09/17 01:48:18;;;;;;;9.00;6.95;;;22.20;99.90;;;;;;5074260;28;20039;-66
2021/09/17 01:50:43;;;;;;;8.65;6.53;;;22.30;99.90;;;;;;5080610;28;20480;-65
2021/09/17 01:53:09;;;;;;;9.15;6.55;;;22.20;99.90;;;;;;5088613;28;20039;-65
2021/09/17 01:55:35;;;;;;;8.52;6.28;;;22.20;99.90;;;;;;5096235;28;20016;-65
2021/09/17 01:58:01;;;;;;;9.07;6.82;;;22.20;99.90;;;;;;5115198;28;20064;-65
2021/09/17 02:00:27;;;;;;;8.25;6.45;;;22.20;99.90;;;;;;5096523;28;20066;-65
2021/09/17 02:02:53;;;;;;;10.55;7.07;;;22.20;99.90;;;;;;5093726;28;20971;-65
2021/09/17 02:05:19;;;;;;;9.27;6.80;;;22.20;99.90;;;;;;5094391;28;20476;-65
2021/09/17 02:07:44;;;;;;;8.98;6.88;;;22.20;99.90;;;;;;5093518;28;20032;-65
2021/09/17 02:10:11;;;;;;;8.80;6.68;;;22.20;99.90;;;;;;5094191;28;20382;-65
2021/09/17 02:12:38;;;;;;;7.28;6.13;;;22.20;99.90;;;;;;5109287;28;20487;-65
2021/09/17 02:15:05;;;;;;;9.82;6.97;;;22.20;99.90;;;;;;5085032;28;20089;-65
2021/09/17 02:17:31;;;;;;;9.13;6.90;;;22.20;99.90;;;;;;5074009;28;20021;-65
2021/09/17 02:19:57;;;;;;;9.18;6.75;;;22.20;99.90;;;;;;5090970;28;20028;-65
2021/09/17 02:22:22;;;;;;;8.73;6.20;;;22.20;99.90;;;;;;5082974;28;20194;-65
2021/09/17 02:24:48;;;;;;;8.93;7.07;;;22.20;99.90;;;;;;5081454;28;20032;-65
2021/09/17 02:27:14;;;;;;;8.50;6.60;;;22.10;99.90;;;;;;5112017;28;20060;-65
2021/09/17 02:29:39;;;;;;;7.68;6.43;;;22.10;99.90;;;;;;5114035;28;20564;-65
2021/09/17 02:32:05;;;;;;;8.35;6.55;;;22.20;99.90;;;;;;5114293;28;20103;-65
2021/09/17 02:34:31;;;;;;;9.30;7.40;;;22.20;99.90;;;;;;5114421;28;20047;-65
2021/09/17 02:36:57;;;;;;;9.00;6.95;;;22.10;99.90;;;;;;5085809;28;20058;-65
2021/09/17 02:39:22;;;;;;;8.10;6.53;;;22.10;99.90;;;;;;5073433;28;20643;-65
2021/09/17 02:41:48;;;;;;;7.90;6.50;;;22.10;99.90;;;;;;5074001;28;20048;-66
2021/09/17 02:44:14;;;;;;;8.25;6.60;;;22.10;99.90;;;;;;5093163;28;20107;-65
2021/09/17 02:46:40;;;;;;;8.93;6.97;;;22.10;99.90;;;;;;5093170;28;20032;-65
2021/09/17 02:49:05;;;;;;;8.82;7.22;;;22.10;99.90;;;;;;5093485;28;20028;-65
2021/09/17 02:51:31;;;;;;;9.63;7.07;;;22.10;99.90;;;;;;5092830;28;20506;-66
2021/09/17 02:53:58;;;;;;;8.45;6.40;;;22.10;99.90;;;;;;5085735;28;20024;-65
2021/09/17 02:56:24;;;;;;;7.28;6.45;;;22.10;99.90;;;;;;5091794;28;20024;-65
2021/09/17 02:58:50;;;;;;;7.78;6.30;;;22.10;99.90;;;;;;5093063;28;20047;-65
2021/09/17 03:01:16;;;;;;;8.80;6.57;;;22.10;99.90;;;;;;5092686;28;20459;-65
2021/09/17 03:03:41;;;;;;;8.15;6.50;;;22.10;99.90;;;;;;5092697;28;20030;-65
2021/09/17 03:06:07;;;;;;;7.65;6.18;;;22.10;99.90;;;;;;5093123;28;20028;-65
2021/09/17 03:08:33;;;;;;;7.88;6.22;;;22.00;99.90;;;;;;5092721;28;20020;-65
2021/09/17 03:10:58;;;;;;;7.68;6.60;;;22.10;99.90;;;;;;5080519;28;20037;-65
2021/09/17 03:13:25;;;;;;;7.30;5.65;;;22.00;99.90;;;;;;5072712;28;20451;-65
2021/09/17 03:15:51;;;;;;;8.15;6.47;;;22.00;99.90;;;;;;5072489;28;20388;-66
2021/09/17 03:18:18;;;;;;;7.13;6.05;;;22.10;99.90;;;;;;5072722;28;20099;-67
2021/09/17 03:20:44;;;;;;;8.75;6.53;;;22.00;99.90;;;;;;5072190;28;20036;-65
2021/09/17 03:23:11;;;;;;;6.50;5.50;;;22.00;99.90;;;;;;5072375;28;20028;-65
2021/09/17 03:25:37;;;;;;;8.82;5.70;;;22.00;99.90;;;;;;5072709;28;20408;-66
2021/09/17 03:28:03;;;;;;;7.70;6.22;;;22.00;99.90;;;;;;5072104;28;20021;-65
2021/09/17 03:30:29;;;;;;;8.10;6.30;;;22.00;99.90;;;;;;5073261;28;20021;-66
2021/09/17 03:32:55;;;;;;;6.70;5.38;;;22.00;99.90;;;;;;5072834;28;20028;-66
2021/09/17 03:35:20;;;;;;;6.97;5.97;;;22.00;99.90;;;;;;5073020;28;20024;-66
2021/09/17 03:37:46;;;;;;;7.00;5.90;;;22.00;99.90;;;;;;5072714;28;20102;-65
2021/09/17 03:40:12;;;;;;;6.40;5.55;;;22.00;99.90;;;;;;5072542;28;20139;-65
2021/09/17 03:42:38;;;;;;;7.57;5.88;;;22.00;99.90;;;;;;5088276;28;20039;-65
2021/09/17 03:45:07;;;;;;;6.97;5.72;;;21.90;99.90;;;;;;5072837;28;20020;-65
2021/09/17 03:47:33;;;;;;;7.78;6.00;;;22.00;99.90;;;;;;5073043;28;20048;-65
2021/09/17 03:49:59;;;;;;;10.82;6.32;;;22.00;99.90;;;;;;5072561;28;20063;-65
2021/09/17 03:52:25;;;;;;;7.32;6.03;;;22.00;99.90;;;;;;5072549;28;20039;-65
2021/09/17 03:54:50;;;;;;;7.00;5.25;;;21.90;99.90;;;;;;5072533;28;20023;-63
2021/09/17 03:57:17;;;;;;;7.10;5.82;;;21.90;99.90;;;;;;5072226;28;20024;-65
2021/09/17 03:59:42;;;;;;;7.38;5.65;;;21.90;99.90;;;;;;5072326;28;20032;-65
2021/09/17 04:02:08;;;;;;;6.85;5.53;;;21.90;99.90;;;;;;5084613;28;20039;-64
2021/09/17 04:04:34;;;;;;;8.27;5.07;;;21.90;99.90;;;;;;5092431;28;20024;-64
2021/09/17 04:07:00;;;;;;;6.88;5.68;;;21.90;99.90;;;;;;5092384;28;20031;-65
2021/09/17 04:09:25;;;;;;;5.80;4.93;;;21.90;99.90;;;;;;5087765;28;20024;-65
2021/09/17 04:11:51;;;;;;;7.63;5.10;;;21.90;99.90;;;;;;5090691;28;20027;-64
2021/09/17 04:14:17;;;;;;;7.35;5.47;;;21.90;99.90;;;;;;5100775;28;20034;-64
2021/09/17 04:16:42;;;;;;;6.68;5.28;;;21.90;99.90;;;;;;5100108;28;20019;-64
2021/09/17 04:19:08;;;;;;;6.03;4.90;;;21.90;99.90;;;;;;5112713;28;20468;-65
2021/09/17 04:21:34;;;;;;;8.00;5.07;;;21.80;99.90;;;;;;5112837;28;20027;-64
2021/09/17 04:24:00;;;;;;;6.28;5.07;;;21.90;99.90;;;;;;5096988;28;20032;-64
2021/09/17 04:26:25;;;;;;;6.50;4.60;;;21.90;99.90;;;;;;5071996;28;20036;-65
2021/09/17 04:28:51;;;;;;;7.85;5.10;;;21.90;99.90;;;;;;5072923;28;20099;-64
2021/09/17 04:31:17;;;;;;;7.43;5.00;;;21.90;99.90;;;;;;5083923;28;20032;-64
2021/09/17 04:33:43;;;;;;;5.50;4.90;;;21.80;99.90;;;;;;5107420;28;20077;-64
2021/09/17 04:36:09;;;;;;;5.80;4.53;;;21.80;99.90;;;;;;5092141;28;20527;-64
2021/09/17 04:38:34;;;;;;;6.07;4.32;;;21.80;99.90;;;;;;5092004;28;20047;-64
2021/09/17 04:41:00;;;;;;;5.90;4.68;;;21.80;99.90;;;;;;5092075;28;20446;-64
2021/09/17 04:43:27;;;;;;;6.97;5.15;;;21.80;99.90;;;;;;5091635;28;20026;-64
2021/09/17 04:45:53;;;;;;;6.03;4.78;;;21.80;99.90;;;;;;5083239;28;20024;-64
2021/09/17 04:48:19;;;;;;;4.95;4.20;;;21.80;99.90;;;;;;5109972;28;20047;-65
2021/09/17 04:50:44;;;;;;;5.88;4.63;;;21.80;99.90;;;;;;5112140;28;20055;-65
2021/09/17 04:53:10;;;;;;;4.90;4.28;;;21.80;99.90;;;;;;5088072;28;20032;-65
2021/09/17 04:55:37;;;;;;;6.13;4.97;;;21.80;99.90;;;;;;5071960;28;20028;-65
2021/09/17 04:58:04;;;;;;;6.15;4.85;;;21.80;99.90;;;;;;5071648;28;20552;-65
2021/09/17 05:00:30;;;;;;;6.05;4.90;;;21.80;99.90;;;;;;5090157;28;20054;-65
2021/09/17 05:02:56;;;;;;;5.85;4.57;;;21.80;99.90;;;;;;5091804;28;20035;-65
2021/09/17 05:05:22;;;;;;;8.23;4.68;;;21.80;99.90;;;;;;5091589;28;20379;-65
2021/09/17 05:07:48;;;;;;;5.20;4.40;;;21.80;99.90;;;;;;5089209;28;20031;-64
2021/09/17 05:10:13;;;;;;;6.60;4.47;;;21.80;99.90;;;;;;5071733;28;20020;-65
2021/09/17 05:12:39;;;;;;;4.65;3.90;;;21.70;99.90;;;;;;5090915;28;20024;-65
2021/09/17 05:15:05;;;;;;;5.43;4.50;;;21.70;99.90;;;;;;5110401;28;20107;-64
2021/09/17 05:17:31;;;;;;;5.57;4.03;;;21.70;99.90;;;;;;5107532;28;20016;-65
2021/09/17 05:19:57;;;;;;;4.82;4.10;;;21.70;99.90;;;;;;5093551;28;20020;-64
2021/09/17 05:22:25;;;;;;;6.00;4.63;;;21.70;99.90;;;;;;5095442;28;20151;-64
2021/09/17 05:24:51;;;;;;;5.55;4.38;;;21.70;99.90;;;;;;5095787;28;20089;-65
2021/09/17 05:27:17;;;;;;;4.53;3.88;;;21.70;99.90;;;;;;5095688;28;20051;-65
2021/09/17 05:29:42;;;;;;;6.10;4.50;;;21.70;99.90;;;;;;5086794;28;20541;-64
2021/09/17 05:32:08;;;;;;;6.60;4.30;;;21.70;99.90;;;;;;5084228;28;20085;-64
2021/09/17 05:34:34;;;;;;;5.57;4.43;;;21.70;99.90;;;;;;5092545;28;20020;-65
2021/09/17 05:37:00;;;;;;;5.38;4.07;;;21.70;99.90;;;;;;5095088;28;20435;-65
2021/09/17 05:39:26;;;;;;;5.55;4.60;;;21.70;99.90;;;;;;5105918;28;20499;-65
2021/09/17 05:41:52;;;;;;;6.50;4.10;;;21.70;99.90;;;;;;5115473;28;20071;-65
2021/09/17 05:44:17;;;;;;;5.07;4.07;;;21.70;99.90;;;;;;5098135;28;20086;-65
2021/09/17 05:46:43;;;;;;;4.93;4.07;;;21.60;99.90;;;;;;5103332;28;20033;-64
2021/09/17 05:49:09;;;;;;;5.53;4.45;;;21.70;99.90;;;;;;5099383;28;20024;-64
2021/09/17 05:51:34;;;;;;;6.82;4.50;;;21.70;99.90;;;;;;5095098;28;20032;-63
2021/09/17 05:54:00;;;;;;;8.45;4.40;;;21.70;99.90;;;;;;5083771;28;20032;-63
2021/09/17 05:56:26;;;;;;;4.70;4.20;;;21.60;99.90;;;;;;5115547;28;20024;-64
2021/09/17 05:58:52;;;;;;;7.18;4.35;;;21.70;99.90;;;;;;5101882;28;20120;-64
2021/09/17 06:01:18;;;;;;;5.25;4.22;;;21.70;99.90;;;;;;5077250;28;20028;-65
2021/09/17 06:03:44;;;;;;;5.32;4.00;;;21.60;99.90;;;;;;5095151;28;20051;-65
2021/09/17 06:06:10;;;;;;;5.50;3.85;;;21.60;99.90;;;;;;5095236;28;20032;-65
2021/09/17 06:08:36;;;;;;;6.40;4.35;;;21.60;99.90;;;;;;5094490;28;20035;-64
2021/09/17 06:11:01;;;;;;;4.50;3.90;;;21.60;99.90;;;;;;5094710;28;20480;-65
2021/09/17 06:13:27;;;;;;;5.30;3.95;;;21.60;99.90;;;;;;5092872;28;20153;-64
2021/09/17 06:15:53;;;;;;;5.18;4.07;;;21.60;99.90;;;;;;5092560;28;20025;-65
2021/09/17 06:18:21;;;;;;;5.57;4.18;;;21.60;99.90;;;;;;5094752;28;20106;-64
2021/09/17 06:20:47;;;;;;;4.97;4.00;;;21.60;99.90;;;;;;5094603;28;20036;-65
2021/09/17 06:23:13;;;;;;;5.70;4.10;;;21.60;99.90;;;;;;5086446;28;20487;-65
2021/09/17 06:25:39;;;;;;;7.25;4.45;;;21.60;99.90;;;;;;5094768;28;20100;-63
2021/09/17 06:28:05;;;;;;;6.63;4.47;;;21.60;99.90;;;;;;5094728;28;20017;-66
2021/09/17 06:30:32;;;;;;;6.40;3.92;;;21.50;99.90;;;;;;5081132;28;20024;-63
2021/09/17 06:32:58;;;;;;;5.20;4.07;;;21.50;99.90;;;;;;5093047;28;20071;-64
2021/09/17 06:35:24;;;;;;;5.57;3.85;;;21.50;99.90;;;;;;5091152;28;20484;-64
2021/09/17 06:37:53;;;;;;;6.10;4.35;;;21.50;99.90;;;;;;5093689;28;20180;-65
2021/09/17 06:40:21;;;;;;;8.80;4.38;;;21.50;99.90;;;;;;5073855;28;20021;-64
2021/09/17 06:42:47;;;;;;;9.75;4.65;;;21.50;99.90;;;;;;5079790;28;20480;-65
2021/09/17 06:45:14;;;;;;;18.17;5.15;;;21.50;99.90;;;;;;5078262;28;20034;-64
2021/09/17 06:47:53;;;;;;;12.20;8.65;;;21.50;99.90;;;;;;5074045;28;20031;-64
2021/09/17 06:50:21;;;;;;;14.68;11.60;;;21.40;99.90;;;;;;5091966;28;20036;-64
2021/09/17 06:52:47;;;;;;;18.50;11.82;;;21.40;99.90;;;;;;5101560;28;20054;-65
2021/09/17 06:55:18;;;;;;;15.88;13.00;;;21.40;99.90;;;;;;5081125;28;20504;-61
2021/09/17 06:57:47;;;;;;;15.82;12.35;;;21.30;99.90;;;;;;5090683;28;20028;-64
2021/09/17 07:00:15;;;;;;;16.25;12.80;;;21.30;99.90;;;;;;5097506;28;20059;-64
2021/09/17 07:02:41;;;;;;;14.70;12.15;;;21.30;99.90;;;;;;5093138;28;20112;-62
2021/09/17 07:05:07;;;;;;;16.52;13.25;;;21.20;99.90;;;;;;5091609;28;20107;-63
2021/09/17 07:07:32;;;;;;;18.77;14.00;;;21.10;99.90;;;;;;5093229;28;20417;-64
2021/09/17 07:09:58;;;;;;;14.80;12.15;;;21.10;99.90;;;;;;5093331;28;20447;-64
2021/09/17 07:12:23;;;;;;;17.73;12.60;;;21.00;99.90;;;;;;5093134;28;20020;-65
2021/09/17 07:14:49;;;;;;;18.10;12.48;;;21.00;99.90;;;;;;5093647;28;20032;-64
2021/09/17 07:17:15;;;;;;;18.98;13.77;;;21.00;99.90;;;;;;5093711;28;20073;-64
2021/09/17 07:19:40;;;;;;;19.23;13.85;;;21.00;99.90;;;;;;5092997;28;20486;-64
2021/09/17 07:22:07;;;;;;;20.88;14.50;;;20.90;99.90;;;;;;5093383;28;20497;-64
2021/09/17 07:24:33;;;;;;;19.00;13.57;;;20.90;99.90;;;;;;5075237;28;20162;-63
2021/09/17 07:26:58;;;;;;;15.43;12.25;;;20.80;99.90;;;;;;5093421;28;20055;-62
2021/09/17 07:29:24;;;;;;;14.63;10.88;;;20.80;99.90;;;;;;5093356;28;20093;-63
2021/09/17 07:31:50;;;;;;;13.88;9.73;;;20.80;99.90;;;;;;5092916;28;20132;-63
2021/09/17 07:34:15;;;;;;;14.43;10.43;;;20.80;99.90;;;;;;5093266;28;20156;-64
2021/09/17 07:36:41;;;;;;;12.93;9.50;;;20.70;99.90;;;;;;5092713;28;20024;-63
2021/09/17 07:39:06;;;;;;;11.80;8.88;;;20.70;99.90;;;;;;5092578;28;20031;-64
2021/09/17 07:41:32;;;;;;;10.80;7.72;;;20.70;99.90;;;;;;5091888;28;20071;-63
2021/09/17 07:43:58;;;;;;;10.18;7.47;;;20.70;99.90;;;;;;5092696;28;20087;-62
2021/09/17 07:46:23;;;;;;;12.10;8.15;;;20.70;99.90;;;;;;5092908;28;20544;-64
2021/09/17 07:48:49;;;;;;;10.13;7.22;;;20.70;99.90;;;;;;5092905;28;20561;-61
2021/09/17 07:51:15;;;;;;;10.50;6.80;;;20.70;99.90;;;;;;5093100;28;20384;-62
2021/09/17 07:53:40;;;;;;;9.63;7.03;;;20.60;99.90;;;;;;5092544;28;20429;-62
2021/09/17 07:56:06;;;;;;;9.43;6.75;;;20.60;99.90;;;;;;5092681;28;20434;-62
2021/09/17 07:58:32;;;;;;;8.02;6.03;;;20.60;99.90;;;;;;5074915;28;20024;-62
2021/09/17 08:00:57;;;;;;;8.55;6.18;;;20.60;99.90;;;;;;5092277;28;20094;-63
2021/09/17 08:03:29;;;;;;;9.20;6.13;;;20.60;99.90;;;;;;5092429;28;20016;-64
2021/09/17 08:05:54;;;;;;;10.45;6.28;;;20.60;99.90;;;;;;5092512;28;20060;-63
2021/09/17 08:08:20;;;;;;;9.73;6.13;;;20.60;99.90;;;;;;5092204;28;20058;-63
2021/09/17 08:10:46;;;;;;;8.90;5.80;;;20.60;99.90;;;;;;5092900;28;20036;-64
2021/09/17 08:13:11;;;;;;;8.95;6.15;;;20.60;99.90;;;;;;5092650;28;20052;-64
2021/09/17 08:15:37;;;;;;;8.05;5.63;;;20.60;99.90;;;;;;5092082;28;20361;-62
2021/09/17 08:18:03;;;;;;;8.35;6.03;;;20.60;99.90;;;;;;5092224;28;20052;-64
2021/09/17 08:20:29;;;;;;;10.50;5.68;;;20.60;99.90;;;;;;5091667;28;20433;-64
2021/09/17 08:22:54;;;;;;;8.20;5.82;;;20.60;99.90;;;;;;5091757;28;20424;-62
2021/09/17 08:25:20;;;;;;;7.55;5.25;;;20.60;99.90;;;;;;5091739;28;20046;-63
2021/09/17 08:27:46;;;;;;;9.05;5.75;;;20.60;99.90;;;;;;5092506;28;20020;-63
2021/09/17 08:30:12;;;;;;;8.88;5.80;;;20.60;99.90;;;;;;5091976;28;20054;-63
2021/09/17 08:32:39;;;;;;;6.97;5.35;;;20.60;99.90;;;;;;5092263;28;20074;-63
2021/09/17 08:35:07;;;;;;;7.30;5.50;;;20.60;99.90;;;;;;5091913;28;20430;-63
2021/09/17 08:37:32;;;;;;;8.32;5.40;;;20.60;99.90;;;;;;5091709;28;20024;-62
2021/09/17 08:39:58;;;;;;;7.32;5.57;;;20.60;99.90;;;;;;5092145;28;20529;-62
2021/09/17 08:42:24;;;;;;;7.13;5.35;;;20.60;99.90;;;;;;5092114;28;20036;-62
2021/09/17 08:44:49;;;;;;;6.95;4.82;;;20.60;99.90;;;;;;5092339;28;20024;-62
2021/09/17 08:47:17;;;;;;;7.95;5.43;;;20.60;99.90;;;;;;5092261;28;20036;-61
2021/09/17 08:49:45;;;;;;;6.22;5.10;;;20.60;99.90;;;;;;5091971;28;20475;-61
2021/09/17 08:52:11;;;;;;;7.55;5.50;;;20.70;99.90;;;;;;5091926;28;20052;-62
2021/09/17 08:54:36;;;;;;;6.82;5.07;;;20.60;99.90;;;;;;5095694;28;20497;-62
2021/09/17 08:57:02;;;;;;;6.85;5.18;;;20.60;99.90;;;;;;5096319;28;20028;-63
2021/09/17 08:59:28;;;;;;;7.00;5.22;;;20.70;99.90;;;;;;5096221;28;20556;-63
2021/09/17 09:01:54;;;;;;;7.50;4.72;;;20.70;99.90;;;;;;5095956;28;20036;-63
2021/09/17 09:04:30;;;;;;;7.38;4.85;;;20.60;99.90;;;;;;5096367;28;20035;-63
2021/09/17 09:07:04;;;;;;;6.43;5.03;;;20.70;99.90;;;;;;5096293;28;20131;-62
2021/09/17 09:09:30;;;;;;;7.38;5.20;;;20.70;99.90;;;;;;5096009;28;20032;-63
2021/09/17 09:11:56;;;;;;;6.03;4.85;;;20.70;99.90;;;;;;5095927;28;20034;-62
2021/09/17 09:14:22;;;;;;;8.00;5.57;;;20.70;99.90;;;;;;5096204;28;20023;-61
2021/09/17 09:16:50;;;;;;;6.93;4.72;;;20.70;99.90;;;;;;5096120;28;20039;-64
2021/09/17 09:19:33;;;;;;;6.22;4.78;;;20.70;99.90;;;;;;5095727;28;20085;-61
2021/09/17 09:22:02;;;;;;;6.38;4.60;;;20.70;99.90;;;;;;5095738;28;20036;-63
2021/09/17 09:24:28;;;;;;;6.47;5.13;;;20.70;99.90;;;;;;5095303;28;20028;-63
2021/09/17 09:27:16;;;;;;;6.10;4.75;;;20.70;99.90;;;;;;5095484;28;20032;-60
2021/09/17 09:29:47;;;;;;;7.07;5.32;;;20.70;99.90;;;;;;5095213;28;20016;-62
2021/09/17 09:32:31;;;;;;;5.90;4.78;;;20.70;99.90;;;;;;5095663;28;20039;-62
2021/09/17 09:35:04;;;;;;;5.75;3.95;;;20.70;99.90;;;;;;5095033;28;20020;-62
2021/09/17 09:37:33;;;;;;;6.78;4.93;;;20.80;99.90;;;;;;5095343;28;20035;-62
2021/09/17 09:40:02;;;;;;;6.68;4.85;;;20.70;99.90;;;;;;5095432;28;20034;-61
2021/09/17 09:42:37;;;;;;;6.95;4.85;;;20.70;99.90;;;;;;5094901;28;20039;-63
2021/09/17 09:45:07;;;;;;;5.80;4.22;;;20.70;99.90;;;;;;5094930;28;20024;-62
2021/09/17 09:47:35;;;;;;;6.20;4.75;;;20.70;99.90;;;;;;5095336;28;20020;-64
2021/09/17 09:50:07;;;;;;;6.28;5.00;;;20.70;99.90;;;;;;5076876;28;20035;-63
2021/09/17 09:52:32;;;;;;;6.35;4.95;;;20.70;99.90;;;;;;5095281;28;20077;-62
2021/09/17 09:54:58;;;;;;;6.60;5.28;;;20.80;99.90;;;;;;5095167;28;20024;-63
2021/09/17 09:57:25;;;;;;;7.20;4.85;;;20.80;99.90;;;;;;5095375;28;20031;-63
2021/09/17 09:59:53;;;;;;;7.03;5.15;;;20.80;99.90;;;;;;5094827;28;20032;-63
2021/09/17 10:02:23;;;;;;;5.80;4.53;;;20.80;99.90;;;;;;5094707;28;20032;-63
2021/09/17 10:04:49;;;;;;;6.70;4.78;;;20.80;99.90;;;;;;5093854;28;20051;-62
2021/09/17 10:07:18;;;;;;;5.82;4.55;;;20.80;99.90;;;;;;5094556;28;20020;-63
2021/09/17 10:09:44;;;;;;;6.25;4.65;;;20.80;99.90;;;;;;5094715;28;20436;-62
2021/09/17 10:12:12;;;;;;;6.07;4.68;;;20.80;99.90;;;;;;5094919;28;20040;-61
2021/09/17 10:14:41;;;;;;;6.00;4.13;;;20.80;99.90;;;;;;5094205;28;20028;-62
2021/09/17 10:17:11;;;;;;;5.03;4.05;;;20.80;99.90;;;;;;5094130;28;20027;-62
2021/09/17 10:19:37;;;;;;;5.47;4.43;;;20.80;99.90;;;;;;5095570;28;20028;-60
2021/09/17 10:22:04;;;;;;;5.75;4.50;;;20.80;99.90;;;;;;5094190;28;20094;-62
2021/09/17 10:24:42;;;;;;;5.85;4.45;;;20.90;99.90;;;;;;5095201;28;20036;-61
2021/09/17 10:27:18;;;;;;;6.38;4.63;;;20.90;99.90;;;;;;5092929;28;20493;-61
2021/09/17 10:30:05;;;;;;;5.07;4.20;;;20.90;99.90;;;;;;5092355;28;20020;-61
2021/09/17 10:32:37;;;;;;;6.20;3.97;;;20.90;99.90;;;;;;5093382;28;20028;-61
2021/09/17 10:35:12;;;;;;;5.85;4.45;;;20.90;99.90;;;;;;5094487;28;20031;-63
2021/09/17 10:37:51;;;;;;;6.28;4.18;;;20.90;99.90;;;;;;5094293;28;20392;-65
2021/09/17 10:40:17;;;;;;;5.43;4.53;;;20.90;99.90;;;;;;5093593;28;20517;-65
2021/09/17 10:43:08;;;;;;;5.65;4.25;;;21.00;99.90;;;;;;5094075;28;20032;-64
2021/09/17 10:45:37;;;;;;;5.30;4.30;;;21.00;99.90;;;;;;5093910;28;20020;-64
2021/09/17 10:48:03;;;;;;;5.88;4.70;;;21.00;99.90;;;;;;5094059;28;20494;-65
2021/09/17 10:50:57;;;;;;;5.78;4.43;;;21.00;99.90;;;;;;5094122;28;20032;-65
2021/09/17 10:53:41;;;;;;;5.72;4.45;;;21.00;99.90;;;;;;5094525;28;20468;-64
2021/09/17 10:56:11;;;;;;;5.32;4.28;;;21.00;99.90;;;;;;5094092;28;20480;-64
2021/09/17 10:58:39;;;;;;;4.70;3.97;;;21.00;99.90;;;;;;5093794;28;20123;-64
2021/09/17 11:01:10;;;;;;;5.15;3.85;;;21.10;99.90;;;;;;5093895;28;20035;-64
2021/09/17 11:03:38;;;;;;;8.43;4.40;;;21.00;99.90;;;;;;5094207;28;20020;-64
2021/09/17 11:06:26;;;;;;;7.53;4.28;;;21.10;99.90;;;;;;5093752;28;20361;-64
2021/09/17 11:09:01;;;;;;;5.05;3.97;;;21.10;99.90;;;;;;5093699;28;20019;-64
2021/09/17 11:11:34;;;;;;;5.57;3.88;;;21.10;99.90;;;;;;5093888;28;20066;-64
2021/09/17 11:14:03;;;;;;;6.35;4.38;;;21.10;99.90;;;;;;5092278;28;20042;-65
2021/09/17 11:16:30;;;;;;;5.75;4.22;;;21.10;99.90;;;;;;5089047;28;20476;-63
2021/09/17 11:19:00;;;;;;;5.82;4.00;;;21.10;99.90;;;;;;5092762;28;20034;-65
2021/09/17 11:21:32;;;;;;;5.20;4.10;;;21.10;99.90;;;;;;5092586;28;20032;-64
2021/09/17 11:23:58;;;;;;;6.05;4.30;;;21.10;99.90;;;;;;5092264;28;20472;-64
2021/09/17 11:26:29;;;;;;;6.05;4.30;;;21.20;99.90;;;;;;5092069;28;20107;-65
2021/09/17 11:29:10;;;;;;;5.85;4.20;;;21.20;99.90;;;;;;5092594;28;20031;-64
2021/09/17 11:31:48;;;;;;;5.43;3.88;;;21.20;99.90;;;;;;5092726;28;20061;-64
2021/09/17 11:34:16;;;;;;;4.55;3.67;;;21.20;99.90;;;;;;5093116;28;20028;-64
2021/09/17 11:36:52;;;;;;;4.45;3.63;;;21.20;99.90;;;;;;5082857;28;20051;-64
2021/09/17 11:39:19;;;;;;;4.82;4.18;;;21.20;99.90;;;;;;5081431;28;20533;-64
2021/09/17 11:41:56;;;;;;;5.10;3.72;;;21.20;99.90;;;;;;5092177;28;20032;-65
2021/09/17 11:44:33;;;;;;;5.50;3.97;;;21.30;99.90;;;;;;5110544;28;20034;-64
2021/09/17 11:47:00;;;;;;;4.85;3.78;;;21.30;99.90;;;;;;5113284;28;20035;-64
2021/09/17 11:49:27;;;;;;;6.40;4.50;;;21.30;99.90;;;;;;5112978;28;20444;-64
2021/09/17 11:52:05;;;;;;;4.60;4.07;;;21.30;99.90;;;;;;5112628;28;20114;-64
2021/09/17 11:54:31;;;;;;;6.50;3.75;;;21.30;99.90;;;;;;5100939;28;20029;-63
2021/09/17 11:57:07;;;;;;;5.72;3.83;;;21.30;99.90;;;;;;5092782;28;20028;-64
2021/09/17 11:59:41;;;;;;;4.65;3.47;;;21.40;99.90;;;;;;5091129;28;20027;-64
2021/09/17 12:02:32;;;;;;;4.18;3.72;;;21.40;99.90;;;;;;5089605;28;20130;-64
2021/09/17 12:05:05;;;;;;;4.10;3.47;;;21.40;99.90;;;;;;5088458;28;20032;-64
2021/09/17 12:07:31;;;;;;;4.97;3.67;;;21.40;99.90;;;;;;5092101;28;20498;-64
2021/09/17 12:09:57;;;;;;;4.10;3.33;;;21.40;99.90;;;;;;5093002;28;20108;-65
2021/09/17 12:12:35;;;;;;;4.35;3.63;;;21.50;99.90;;;;;;5092684;28;20103;-65
2021/09/17 12:15:01;;;;;;;4.53;3.75;;;21.50;99.90;;;;;;5092828;28;20050;-64
2021/09/17 12:17:27;;;;;;;4.30;3.70;;;21.50;99.90;;;;;;5092847;28;20028;-64
2021/09/17 12:19:57;;;;;;;4.95;3.60;;;21.50;99.90;;;;;;5092344;28;20027;-64
2021/09/17 12:22:39;;;;;;;4.00;3.45;;;21.50;99.90;;;;;;5092333;28;20488;-64
2021/09/17 12:25:14;;;;;;;4.80;3.55;;;21.50;99.90;;;;;;5092473;28;20100;-63
2021/09/17 12:27:44;;;;;;;5.50;3.75;;;21.60;99.90;;;;;;5092107;28;20028;-63
2021/09/17 12:30:13;;;;;;;5.65;3.60;;;21.60;99.90;;;;;;5092323;28;20059;-64
2021/09/17 12:32:40;;;;;;;3.58;3.13;;;21.60;99.90;;;;;;5092475;28;20103;-64
2021/09/17 12:35:06;;;;;;;5.35;3.60;;;21.60;99.90;;;;;;5092271;28;20055;-64
2021/09/17 12:37:32;;;;;;;4.53;4.03;;;21.60;99.90;;;;;;5092478;28;20047;-64
2021/09/17 12:40:28;;;;;;;4.38;3.58;;;21.60;99.90;;;;;;5092433;28;20024;-64
2021/09/17 12:43:06;;;;;;;5.80;3.72;;;21.70;99.90;;;;;;5075732;28;20044;-64
2021/09/17 12:45:32;;;;;;;3.85;3.30;;;21.70;99.90;;;;;;5092565;28;20140;-64
2021/09/17 12:48:00;;;;;;;3.85;3.35;;;21.70;99.90;;;;;;5092446;28;20031;-63